Time;durP1;ratioP1;P1;durP2;ratioP2;P2;SDS_P1;SDS_P2;PMS_P1;PMS_P2;Temp;Humidity;BMP_temperature;BMP_pressure;BME280_temperature;BME280_humidity;BME280_pressure;Samples;Min_cycle;Max_cycle;Signal;HPM_P1;HPM_P2
2022/12/16 00:02:13;;;;;;;51.87;26.63;;;2.20;99.90;;;;;;5078815;28;20177;-79
2022/12/16 00:04:38;;;;;;;49.90;27.63;;;2.20;99.90;;;;;;5077273;28;20176;-81
2022/12/16 00:07:04;;;;;;;46.07;27.07;;;2.10;99.90;;;;;;5076073;28;20225;-83
2022/12/16 00:09:30;;;;;;;46.03;26.73;;;2.10;99.90;;;;;;5090982;28;20215;-79
2022/12/16 00:11:56;;;;;;;46.07;27.00;;;2.10;99.90;;;;;;5084895;28;20164;-82
2022/12/16 00:14:21;;;;;;;49.63;26.10;;;2.10;99.90;;;;;;5075755;28;20187;-81
2022/12/16 00:16:47;;;;;;;48.97;26.90;;;2.00;99.90;;;;;;5077863;28;20200;-78
2022/12/16 00:19:13;;;;;;;45.00;26.47;;;1.90;99.90;;;;;;5075154;28;20540;-78
2022/12/16 00:21:39;;;;;;;43.57;26.07;;;1.80;99.90;;;;;;5074797;28;20180;-79
2022/12/16 00:24:04;;;;;;;49.40;26.87;;;1.70;99.90;;;;;;5074803;28;20182;-77
2022/12/16 00:26:30;;;;;;;44.20;25.90;;;1.70;99.90;;;;;;5074783;28;20179;-78
2022/12/16 00:28:57;;;;;;;49.40;27.03;;;1.80;99.90;;;;;;5074644;28;20212;-82
2022/12/16 00:31:23;;;;;;;45.33;26.47;;;1.80;99.90;;;;;;5073505;28;20174;-81
2022/12/16 00:33:48;;;;;;;47.17;25.70;;;1.80;99.90;;;;;;5074000;28;20600;-78
2022/12/16 00:36:14;;;;;;;53.67;27.00;;;1.80;99.90;;;;;;5074694;28;20195;-81
2022/12/16 00:38:40;;;;;;;47.73;26.13;;;1.80;99.90;;;;;;5073703;28;20235;-78
2022/12/16 00:41:06;;;;;;;43.87;25.80;;;1.80;99.90;;;;;;5075328;28;20178;-81
2022/12/16 00:43:32;;;;;;;49.30;27.27;;;1.90;99.90;;;;;;5074691;28;20568;-85
2022/12/16 00:45:58;;;;;;;49.60;27.37;;;1.90;99.90;;;;;;5073411;28;20215;-84
2022/12/16 00:48:24;;;;;;;44.87;25.60;;;1.90;99.90;;;;;;5073207;28;20207;-84
2022/12/16 00:50:51;;;;;;;50.47;27.57;;;2.00;99.90;;;;;;5073306;28;20649;-83
2022/12/16 00:53:18;;;;;;;51.53;27.40;;;2.00;99.90;;;;;;5074758;28;20172;-85
2022/12/16 00:55:45;;;;;;;47.03;27.20;;;2.00;99.90;;;;;;5076359;28;20665;-85
2022/12/16 00:58:11;;;;;;;45.80;26.30;;;2.00;99.90;;;;;;5073867;28;20175;-83
2022/12/16 01:00:37;;;;;;;47.97;27.47;;;2.00;99.90;;;;;;5074264;28;20198;-81
2022/12/16 01:03:03;;;;;;;48.83;27.00;;;2.00;99.90;;;;;;5072862;28;20205;-83
2022/12/16 01:05:29;;;;;;;46.43;26.33;;;2.10;99.90;;;;;;5072934;28;20675;-84
2022/12/16 01:07:55;;;;;;;47.00;25.23;;;2.10;99.90;;;;;;5073938;28;20251;-84
2022/12/16 01:10:23;;;;;;;50.53;25.83;;;2.10;99.90;;;;;;5072814;28;20210;-84
2022/12/16 01:12:49;;;;;;;46.40;26.20;;;2.10;99.90;;;;;;5072792;28;20175;-84
2022/12/16 01:15:16;;;;;;;41.57;25.57;;;2.00;99.90;;;;;;5072803;28;20175;-85
2022/12/16 01:17:42;;;;;;;43.40;23.87;;;2.00;99.90;;;;;;5073826;28;20167;-85
2022/12/16 01:20:08;;;;;;;49.20;26.07;;;2.00;99.90;;;;;;5074087;28;20252;-85
2022/12/16 01:22:35;;;;;;;44.13;25.77;;;1.90;99.90;;;;;;5073488;28;20183;-81
2022/12/16 01:25:01;;;;;;;47.07;26.40;;;1.90;99.90;;;;;;5073760;28;20173;-84
2022/12/16 01:27:27;;;;;;;44.63;26.53;;;2.00;99.90;;;;;;5075054;28;20174;-80
2022/12/16 01:29:54;;;;;;;47.13;26.97;;;2.00;99.90;;;;;;5074369;28;20202;-79
2022/12/16 01:32:20;;;;;;;48.33;25.43;;;1.90;99.90;;;;;;5072464;28;20783;-79
2022/12/16 01:34:50;;;;;;;46.10;25.67;;;1.90;99.90;;;;;;5073592;28;20229;-79
2022/12/16 01:37:16;;;;;;;47.03;25.60;;;1.80;99.90;;;;;;5074383;28;20174;-84
2022/12/16 01:39:42;;;;;;;46.40;25.40;;;1.80;99.90;;;;;;5082774;28;20182;-82
2022/12/16 01:42:20;;;;;;;46.27;27.40;;;1.80;99.90;;;;;;5080556;28;20205;-83
2022/12/16 01:44:48;;;;;;;42.03;25.47;;;1.80;99.90;;;;;;5073396;28;20167;-85
2022/12/16 01:47:34;;;;;;;43.10;24.80;;;1.80;99.90;;;;;;5072729;28;20540;-82
2022/12/16 01:50:14;;;;;;;41.00;24.40;;;1.90;99.90;;;;;;5072098;28;20229;-81
2022/12/16 01:52:48;;;;;;;46.93;25.53;;;1.90;99.90;;;;;;5073038;28;20162;-82
2022/12/16 01:55:37;;;;;;;44.23;25.27;;;1.90;99.90;;;;;;5071736;28;20650;-82
2022/12/16 01:58:09;;;;;;;44.80;25.90;;;1.90;99.90;;;;;;5072944;28;20248;-81
2022/12/16 02:00:37;;;;;;;47.30;25.53;;;2.00;99.90;;;;;;5072959;28;20217;-81
2022/12/16 02:03:05;;;;;;;48.97;26.60;;;2.00;99.90;;;;;;5071502;28;20215;-80
2022/12/16 02:05:34;;;;;;;45.33;25.53;;;1.90;99.90;;;;;;5073581;28;20167;-81
2022/12/16 02:08:10;;;;;;;43.23;26.13;;;2.00;99.90;;;;;;5072810;28;20319;-80
2022/12/16 02:11:02;;;;;;;50.60;26.87;;;2.00;99.90;;;;;;5074317;28;20178;-81
2022/12/16 02:14:05;;;;;;;47.70;26.53;;;2.00;99.90;;;;;;5074158;28;20344;-79
2022/12/16 02:16:46;;;;;;;44.40;25.33;;;2.00;99.90;;;;;;5072837;28;20181;-82
2022/12/16 02:19:40;;;;;;;45.77;24.93;;;2.00;99.90;;;;;;5073236;28;20174;-80
2022/12/16 02:22:34;;;;;;;45.33;25.60;;;2.00;99.90;;;;;;5031286;28;20181;-82
2022/12/16 02:25:35;;;;;;;43.57;25.33;;;2.00;99.90;;;;;;5031195;28;20174;-81
2022/12/16 02:28:38;;;;;;;53.40;26.67;;;2.00;99.90;;;;;;4972299;28;20279;-78
2022/12/16 02:31:25;;;;;;;46.43;25.47;;;2.10;99.90;;;;;;5031326;28;20208;-85
2022/12/16 02:33:58;;;;;;;46.90;25.90;;;2.10;99.90;;;;;;5031308;28;20187;-84
2022/12/16 02:36:45;;;;;;;48.77;26.33;;;2.00;99.90;;;;;;5031428;28;20248;-83
2022/12/16 02:39:21;;;;;;;44.00;24.53;;;2.00;99.90;;;;;;5031175;28;20235;-85
2022/12/16 02:42:13;;;;;;;50.70;27.33;;;1.90;99.90;;;;;;5037713;28;20167;-83
2022/12/16 02:44:53;;;;;;;51.33;26.33;;;1.90;99.90;;;;;;5032877;28;20201;-83
2022/12/16 02:47:18;;;;;;;49.50;26.33;;;1.90;99.90;;;;;;5030582;28;20248;-82
2022/12/16 02:49:47;;;;;;;49.63;27.13;;;1.90;99.90;;;;;;5030456;28;20677;-82
2022/12/16 02:52:14;;;;;;;43.83;25.87;;;1.90;99.90;;;;;;5030482;28;20225;-80
2022/12/16 02:54:42;;;;;;;46.87;25.27;;;1.90;99.90;;;;;;5030435;28;20197;-82
2022/12/16 02:57:26;;;;;;;44.17;26.40;;;1.90;99.90;;;;;;5031180;28;20173;-81
2022/12/16 02:59:58;;;;;;;47.43;25.03;;;1.90;99.90;;;;;;5072483;28;20262;-82
2022/12/16 03:02:27;;;;;;;46.87;25.20;;;2.00;99.90;;;;;;5076298;28;20183;-80
2022/12/16 03:05:15;;;;;;;47.93;26.77;;;2.00;99.90;;;;;;5076467;28;20657;-83
2022/12/16 03:07:43;;;;;;;44.07;25.17;;;2.00;99.90;;;;;;5076462;28;20215;-80
2022/12/16 03:10:14;;;;;;;42.93;25.10;;;2.10;99.90;;;;;;5076392;28;20218;-79
2022/12/16 03:12:43;;;;;;;49.43;26.97;;;2.10;99.90;;;;;;5076310;28;20185;-79
2022/12/16 03:15:10;;;;;;;45.80;25.67;;;2.10;99.90;;;;;;5076604;28;20662;-85
2022/12/16 03:17:37;;;;;;;44.60;25.57;;;2.20;99.90;;;;;;5079246;28;20167;-80
2022/12/16 03:20:16;;;;;;;54.03;26.70;;;2.20;99.90;;;;;;5084016;28;20167;-81
2022/12/16 03:22:45;;;;;;;44.77;24.97;;;2.20;99.90;;;;;;5076034;28;20155;-80
2022/12/16 03:25:11;;;;;;;53.23;26.47;;;2.20;99.90;;;;;;5075987;28;20217;-82
2022/12/16 03:27:55;;;;;;;46.63;25.87;;;2.10;99.90;;;;;;5075990;28;20178;-81
2022/12/16 03:30:31;;;;;;;46.73;25.67;;;2.20;99.90;;;;;;5075990;28;20175;-80
2022/12/16 03:33:03;;;;;;;44.43;25.83;;;2.20;99.90;;;;;;5075964;28;20158;-83
2022/12/16 03:35:49;;;;;;;44.30;26.00;;;2.20;99.90;;;;;;5075894;28;20647;-81
2022/12/16 03:38:16;;;;;;;44.30;25.93;;;2.20;99.90;;;;;;5075956;28;20251;-79
2022/12/16 03:40:43;;;;;;;45.93;26.57;;;2.20;99.90;;;;;;5075611;28;20257;-83
2022/12/16 03:43:15;;;;;;;48.33;26.17;;;2.20;99.90;;;;;;5075571;28;20163;-79
2022/12/16 03:45:44;;;;;;;47.53;25.40;;;2.20;99.90;;;;;;5076306;28;20542;-79
2022/12/16 03:48:12;;;;;;;48.30;26.37;;;2.10;99.90;;;;;;5076595;28;20174;-81
2022/12/16 03:50:38;;;;;;;46.70;25.83;;;2.10;99.90;;;;;;5075579;28;20173;-80
2022/12/16 03:53:05;;;;;;;48.97;26.27;;;2.10;99.90;;;;;;5076071;28;20532;-83
2022/12/16 03:55:31;;;;;;;49.23;28.03;;;2.10;99.90;;;;;;5076881;28;20175;-78
2022/12/16 03:57:57;;;;;;;45.53;26.13;;;2.10;99.90;;;;;;5075741;28;20176;-81
2022/12/16 04:00:24;;;;;;;44.77;26.57;;;2.20;99.90;;;;;;5075212;28;20247;-80
2022/12/16 04:02:50;;;;;;;44.23;25.20;;;2.20;99.90;;;;;;5075121;28;20653;-80
2022/12/16 04:05:16;;;;;;;47.57;26.40;;;2.30;99.90;;;;;;5075219;28;20258;-78
2022/12/16 04:07:42;;;;;;;44.47;25.53;;;2.30;99.90;;;;;;5075015;28;20686;-78
2022/12/16 04:10:08;;;;;;;44.30;25.90;;;2.20;99.90;;;;;;5074275;28;20259;-79
2022/12/16 04:26:30;;;;;;;48.57;25.20;;;2.10;99.90;;;;;;5074807;28;20181;-80
2022/12/16 04:28:55;;;;;;;47.47;25.10;;;2.00;99.90;;;;;;5074934;28;20553;-84
2022/12/16 04:31:21;;;;;;;47.07;25.63;;;2.00;99.90;;;;;;5074595;28;20189;-82
